SXS41C LTAI-LOWW
Flight info
| Callsign | SXS41C |
|---|---|
| Flight time | N/A |
| Altitude | 36000 |
| Route | EKNUD UQ26 TUDBU DCT APROB DCT BALUX DCT TORNO DCT NATEX NATEX2W |
| Aircraft | B738/M-SDE2E3FGHIRWXY/LB1 |
Departure
| Time | N/A |
|---|---|
| Airport | Antalya International Airport (LTAI) |
Arrival
| Time | 2026-05-01 07:53 |
|---|---|
| Airport | Vienna International Airport (LOWW) |
| Time | Latitude | Longitude | Altitude | Speed | Heading |
|---|---|---|---|---|---|
| 2026-05-01 07:23 | 46.83052 | 20.10333 | 38371 ft | 442 kts | 313° |
| 2026-05-01 07:24 | 46.88670 | 19.99781 | 38370 ft | 442 kts | 313° |
| 2026-05-01 07:24 | 46.92422 | 19.92710 | 38374 ft | 442 kts | 313° |
| 2026-05-01 07:25 | 46.96200 | 19.85577 | 38016 ft | 448 kts | 313° |
| 2026-05-01 07:25 | 46.98099 | 19.81984 | 37674 ft | 443 kts | 313° |
| 2026-05-01 07:25 | 46.99886 | 19.78592 | 37262 ft | 439 kts | 314° |
| 2026-05-01 07:25 | 47.01731 | 19.75086 | 36868 ft | 434 kts | 314° |
| 2026-05-01 07:26 | 47.03565 | 19.71596 | 36482 ft | 430 kts | 314° |
| 2026-05-01 07:26 | 47.05382 | 19.68137 | 36095 ft | 426 kts | 315° |
| 2026-05-01 07:26 | 47.07183 | 19.64706 | 35669 ft | 423 kts | 316° |
| 2026-05-01 07:26 | 47.08974 | 19.61289 | 35280 ft | 420 kts | 316° |
| 2026-05-01 07:27 | 47.10747 | 19.57904 | 34904 ft | 417 kts | 316° |
| 2026-05-01 07:27 | 47.12508 | 19.54538 | 34502 ft | 415 kts | 317° |
| 2026-05-01 07:27 | 47.14262 | 19.51181 | 34079 ft | 412 kts | 317° |
| 2026-05-01 07:27 | 47.16006 | 19.47839 | 33648 ft | 409 kts | 317° |
| 2026-05-01 07:28 | 47.17727 | 19.44535 | 33256 ft | 406 kts | 318° |
| 2026-05-01 07:28 | 47.19433 | 19.41255 | 32872 ft | 402 kts | 318° |
| 2026-05-01 07:28 | 47.21102 | 19.38043 | 32505 ft | 399 kts | 319° |
| 2026-05-01 07:28 | 47.22242 | 19.35848 | 32255 ft | 397 kts | 319° |
| 2026-05-01 07:29 | 47.27477 | 19.25743 | 31102 ft | 388 kts | 320° |
| 2026-05-01 07:29 | 47.29110 | 19.22584 | 30748 ft | 385 kts | 320° |
| 2026-05-01 07:30 | 47.30730 | 19.19448 | 30373 ft | 383 kts | 320° |
| 2026-05-01 07:30 | 47.32342 | 19.16325 | 29952 ft | 381 kts | 320° |
| 2026-05-01 07:30 | 47.33932 | 19.13170 | 29553 ft | 392 kts | 316° |
| 2026-05-01 07:30 | 47.35330 | 19.09533 | 28911 ft | 420 kts | 307° |
| 2026-05-01 07:31 | 47.36590 | 19.05641 | 27832 ft | 434 kts | 305° |
| 2026-05-01 07:31 | 47.40375 | 18.93167 | 26416 ft | 473 kts | 303° |
| 2026-05-01 07:32 | 47.43105 | 18.84291 | 25514 ft | 473 kts | 303° |
| 2026-05-01 07:32 | 47.44467 | 18.79876 | 25076 ft | 469 kts | 303° |
| 2026-05-01 07:33 | 47.47170 | 18.71152 | 24214 ft | 465 kts | 303° |
| 2026-05-01 07:33 | 47.48513 | 18.66819 | 23726 ft | 463 kts | 303° |
| 2026-05-01 07:33 | 47.51168 | 18.58220 | 22801 ft | 455 kts | 302° |
| 2026-05-01 07:34 | 47.52472 | 18.53988 | 22384 ft | 450 kts | 302° |
| 2026-05-01 07:34 | 47.54870 | 18.45564 | 21642 ft | 444 kts | 295° |
| 2026-05-01 07:34 | 47.55815 | 18.41216 | 21376 ft | 444 kts | 294° |
| 2026-05-01 07:35 | 47.56713 | 18.36864 | 21010 ft | 443 kts | 293° |
| 2026-05-01 07:35 | 47.57603 | 18.32495 | 20597 ft | 438 kts | 293° |
| 2026-05-01 07:35 | 47.58484 | 18.28193 | 20168 ft | 433 kts | 293° |
| 2026-05-01 07:35 | 47.59365 | 18.23938 | 19773 ft | 430 kts | 293° |
| 2026-05-01 07:36 | 47.60248 | 18.19721 | 19381 ft | 428 kts | 293° |
| 2026-05-01 07:36 | 47.61130 | 18.15521 | 18981 ft | 425 kts | 293° |
| 2026-05-01 07:36 | 47.61996 | 18.11407 | 18562 ft | 422 kts | 293° |
| 2026-05-01 07:36 | 47.62880 | 18.07205 | 18116 ft | 420 kts | 293° |
| 2026-05-01 07:37 | 47.64555 | 17.99211 | 17301 ft | 414 kts | 293° |
| 2026-05-01 07:37 | 47.65405 | 17.95139 | 16904 ft | 411 kts | 293° |
| 2026-05-01 07:37 | 47.66247 | 17.91101 | 16505 ft | 408 kts | 292° |
| 2026-05-01 07:38 | 47.67079 | 17.87097 | 16103 ft | 406 kts | 292° |
| 2026-05-01 07:38 | 47.67910 | 17.83091 | 15724 ft | 404 kts | 292° |
| 2026-05-01 07:38 | 47.69555 | 17.75143 | 14953 ft | 401 kts | 292° |
| 2026-05-01 07:39 | 47.70371 | 17.71182 | 14566 ft | 400 kts | 292° |
| 2026-05-01 07:39 | 47.71180 | 17.67245 | 14172 ft | 398 kts | 292° |
| 2026-05-01 07:39 | 47.72783 | 17.59420 | 13332 ft | 392 kts | 292° |
| 2026-05-01 07:40 | 47.73563 | 17.55608 | 12945 ft | 388 kts | 291° |
| 2026-05-01 07:40 | 47.74132 | 17.51712 | 12714 ft | 386 kts | 280° |
| 2026-05-01 07:40 | 47.74149 | 17.47727 | 12373 ft | 387 kts | 269° |
| 2026-05-01 07:40 | 47.73888 | 17.43746 | 12005 ft | 386 kts | 268° |
| 2026-05-01 07:41 | 47.73628 | 17.39791 | 11637 ft | 382 kts | 268° |
| 2026-05-01 07:41 | 47.73379 | 17.35906 | 11262 ft | 374 kts | 268° |
| 2026-05-01 07:41 | 47.72911 | 17.28365 | 10525 ft | 354 kts | 268° |
| 2026-05-01 07:42 | 47.72694 | 17.24839 | 10369 ft | 333 kts | 268° |
| 2026-05-01 07:42 | 47.72491 | 17.21540 | 10347 ft | 310 kts | 268° |
| 2026-05-01 07:42 | 47.72301 | 17.18450 | 10120 ft | 295 kts | 268° |
| 2026-05-01 07:42 | 47.72117 | 17.15377 | 9531 ft | 297 kts | 268° |
| 2026-05-01 07:43 | 47.71932 | 17.12344 | 9157 ft | 291 kts | 268° |
| 2026-05-01 07:43 | 47.71750 | 17.09398 | 8847 ft | 282 kts | 268° |
| 2026-05-01 07:43 | 47.72229 | 17.04038 | 8287 ft | 253 kts | 306° |
| 2026-05-01 07:44 | 47.74372 | 16.99828 | 7379 ft | 266 kts | 315° |
| 2026-05-01 07:44 | 47.76727 | 16.95612 | 6776 ft | 267 kts | 314° |
| 2026-05-01 07:45 | 47.77906 | 16.93477 | 6467 ft | 267 kts | 314° |
| 2026-05-01 07:45 | 47.79075 | 16.91345 | 6184 ft | 265 kts | 313° |
| 2026-05-01 07:45 | 47.80238 | 16.89212 | 5896 ft | 264 kts | 313° |
| 2026-05-01 07:45 | 47.81386 | 16.87100 | 5635 ft | 262 kts | 313° |
| 2026-05-01 07:46 | 47.82527 | 16.84994 | 5368 ft | 260 kts | 313° |
| 2026-05-01 07:46 | 47.83651 | 16.82914 | 5148 ft | 256 kts | 313° |
| 2026-05-01 07:46 | 47.85811 | 16.78904 | 4923 ft | 240 kts | 313° |
| 2026-05-01 07:47 | 47.86838 | 16.76995 | 4821 ft | 232 kts | 313° |
| 2026-05-01 07:47 | 47.87831 | 16.75148 | 4725 ft | 224 kts | 313° |
| 2026-05-01 07:47 | 47.88790 | 16.73365 | 4636 ft | 217 kts | 313° |
| 2026-05-01 07:47 | 47.89725 | 16.71628 | 4430 ft | 219 kts | 313° |
| 2026-05-01 07:48 | 47.91635 | 16.68079 | 4006 ft | 216 kts | 313° |
| 2026-05-01 07:48 | 47.92589 | 16.66409 | 3860 ft | 203 kts | 322° |
| 2026-05-01 07:48 | 47.93785 | 16.65583 | 3730 ft | 183 kts | 349° |
| 2026-05-01 07:49 | 47.94973 | 16.65090 | 3501 ft | 174 kts | 345° |
| 2026-05-01 07:49 | 47.97148 | 16.64112 | 3034 ft | 154 kts | 347° |
| 2026-05-01 07:49 | 47.98141 | 16.63686 | 2849 ft | 140 kts | 347° |
| 2026-05-01 07:50 | 47.99073 | 16.63290 | 2650 ft | 144 kts | 348° |
| 2026-05-01 07:50 | 48.00856 | 16.62534 | 2302 ft | 130 kts | 347° |
| 2026-05-01 07:50 | 48.01737 | 16.62161 | 2141 ft | 133 kts | 346° |
| 2026-05-01 07:51 | 48.02634 | 16.61779 | 1931 ft | 132 kts | 345° |
| 2026-05-01 07:51 | 48.03520 | 16.61401 | 1747 ft | 133 kts | 345° |
| 2026-05-01 07:51 | 48.04406 | 16.61027 | 1554 ft | 135 kts | 347° |
| 2026-05-01 07:52 | 48.06177 | 16.60304 | 1239 ft | 130 kts | 345° |
| 2026-05-01 07:52 | 48.07063 | 16.59929 | 1036 ft | 137 kts | 345° |
| 2026-05-01 07:52 | 48.07982 | 16.59530 | 835 ft | 138 kts | 343° |
| 2026-05-01 07:53 | 48.09742 | 16.58776 | 615 ft | 103 kts | 343° |
| 2026-05-01 07:53 | 48.10263 | 16.58547 | 621 ft | 59 kts | 343° |
| 2026-05-01 07:53 | 48.10517 | 16.58435 | 613 ft | 27 kts | 343° |
| 2026-05-01 07:53 | 48.10717 | 16.58299 | 609 ft | 34 kts | 317° |
| 2026-05-01 07:54 | 48.11003 | 16.57861 | 613 ft | 16 kts | 314° |
| 2026-05-01 07:55 | 48.11155 | 16.57446 | 610 ft | 14 kts | 296° |
| 2026-05-01 07:55 | 48.11239 | 16.57186 | 612 ft | 13 kts | 296° |
| 2026-05-01 07:56 | 48.11356 | 16.56829 | 609 ft | 14 kts | 295° |
| 2026-05-01 07:56 | 48.11463 | 16.56498 | 617 ft | 19 kts | 296° |
| 2026-05-01 07:57 | 48.11520 | 16.56323 | 618 ft | 19 kts | 296° |
| 2026-05-01 07:57 | 48.11656 | 16.55908 | 614 ft | 24 kts | 296° |
| 2026-05-01 07:58 | 48.11817 | 16.55845 | 609 ft | 11 kts | 28° |
| 2026-05-01 07:58 | 48.11892 | 16.55940 | 609 ft | 6 kts | 107° |
| 2026-05-01 07:59 | 48.11852 | 16.55998 | 609 ft | 0 kts | 126° |